Terminal Aerodrome Forecast
Issued by NWS Burlington, VT

Home | Current Version | Previous Version | Text Only | Print | Product List | Glossary On
Versions: 1 2 3 4 5 6 7 8 9 10 11 12 13 14 15 16 17
000
FTUS41 KBTV 250759 AAB
TAFBTV
TAF AMD
KBTV 250759Z 2508/2606 19009KT 6SM -SHRA BR OVC015 WS020/23045KT
     FM250900 21012G24KT P6SM -SHRA BKN025 OVC035
     FM251100 22015G31KT 3SM RA BR BKN030 OVC040
     FM251300 23015G33KT P6SM VCSH BKN035 OVC050
     FM251700 23017G35KT P6SM BKN045 OVC060
     FM260000 26012G26KT P6SM OVC050=

USA.gov is the U.S. government's official web portal to all federal, state and local government web resources and services.